Warning: Javascript must be enabled to use all the features on this page!


Page Loading - Please Wait...

Click to hideNews Bulletins

Peak Streamflow for the Nation

USGS 11262900 MUD SLOUGH NR GUSTINE CA

Merced County, California
Hydrologic Unit Code 18040001
Latitude  37°15'45", Longitude 120°54'20" NAD27
Gage datum 25 feet above NGVD29
Output formats
Table
Graph
Tab-separated file
peakfq (watstore) format
Reselect output format
Water
Year
Date Gage
Height
(feet)
Stream-
flow
(cfs)
1986 1986-03-16   5701
1987 1987-02-15   2041
1988 1988-03-02 6.39 203
1989 1989-04-20 5.64 1366
1990 1989-10-24 7.16 2036
1991 1991-04-05 5.02 83.06
1992 1992-02-18 6.75 1846
1993 1993-01-20 9.24 4826
1994 1993-10-25 6.88 1886
1995 1995-03-16 10.96 7106
1996 1996-02-09 8.52 4776
1997 1997-01-28 12.03 7186
1998 1998-02-08 11.112 1,0606
1999 1999-02-13 7.23 3496
2000 2000-03-01 7.70 3706
2001 2001-03-11 7.97 4406
2002 2001-11-14 7.08 2966
2003 2002-12-23 8.63 5236
2004 2004-03-02 8.72 5396
2005 2005-02-19 9.26 6396
2006 2006-01-05 9.242 6236
2007 2006-10-18 6.64 2516
2008 2008-01-25 6.84 2506
2009 2009-01-25 6.87 2206
2010 2010-01-22 8.24 3576
2011 2011-02-26 8.462 4156
2012 2012-03-19 6.86 2326
2013 2012-12-05 7.09 2346
2014 2014-03-01 6.002 1386
2015 2014-12-15 9.65 4016
2016 2016-03-07 8.84 2936
2017 2017-02-12 11.252 6306
2018 2018-01-11 8.53 3506
2019 2019-02-18 9.09 3486
?
  Peak Gage-Height Qualification Codes.
?
  Peak Streamflow Qualification Codes.